aviador You're here:

KCDW Decoded Metar

CALDWELL in NJ, USA
Report Time2017-06-24 21:53:00
UTC Time2017-06-24 22:24:20
Flight Rules vfr VFR
Wind280° at 08 kt
W.Decomp.*RWY 28: 7.8 kt HW 1.8 kt RCW
RWY 22: 2.3 kt HW 7.7 kt RCW
W.Rank280° ranks 6
Current wind is above 280° avg. (7.3)
Visibility9999 m
Phenomena:N/A
Clouds:N/A
Expected CloudBase > 7,600 ft AGL from Temp-Dew spread
CeilingNone
Temp31°C (ISA +16)
Dew Point12°C (31% RH)
Heat Index29.8°C
AAT28.7°C
QNH1009 hPa
Density Alt2,411 ft
Elevation210 ft
Report Wrong Elevation
Raw Report
METAR KCDW 242153Z 28008KT 10SM CLR 31/12 A2981 RMK AO2 SLP096 T03060122=

Extra information for KCDW:More info

Metar Taf Metar & Taf Last 4 Metars F.Rules Stats Wind Profile Meteogram Temp Stats Airport Information Weather charts Add Link Nearby VenuesMetar ALERT Operation Metar Decoded Social comments

AIRNAV info for KCDW